Time;durP1;ratioP1;P1;durP2;ratioP2;P2;SDS_P1;SDS_P2;PMS_P1;PMS_P2;Temp;Humidity;BMP_temperature;BMP_pressure;BME280_temperature;BME280_humidity;BME280_pressure;Samples;Min_cycle;Max_cycle;Signal;HPM_P1;HPM_P2
2021/09/17 00:01:17;;;;;;;3.53;1.17;;;14.90;99.90;;;;;;4889133;29;20081;-75
2021/09/17 00:03:43;;;;;;;0.90;0.80;;;14.90;99.90;;;;;;4890308;29;20029;-75
2021/09/17 00:06:09;;;;;;;3.70;1.38;;;14.90;99.90;;;;;;4890150;29;20112;-75
2021/09/17 00:08:35;;;;;;;2.47;1.55;;;14.90;99.90;;;;;;4890525;29;20119;-72
2021/09/17 00:11:00;;;;;;;3.72;1.10;;;14.90;99.90;;;;;;4889868;29;20037;-74
2021/09/17 00:13:26;;;;;;;5.78;1.45;;;14.90;99.90;;;;;;4888948;29;20144;-74
2021/09/17 00:15:52;;;;;;;2.90;1.52;;;14.90;99.90;;;;;;4890299;29;20474;-72
2021/09/17 00:18:17;;;;;;;2.35;1.33;;;14.90;99.90;;;;;;4890168;29;20069;-73
2021/09/17 00:20:43;;;;;;;2.97;1.10;;;14.90;99.90;;;;;;4890272;29;20097;-72
2021/09/17 00:23:09;;;;;;;5.90;1.67;;;14.90;99.90;;;;;;4890347;29;20128;-73
2021/09/17 00:25:35;;;;;;;8.23;1.95;;;14.90;99.90;;;;;;4889618;29;20037;-73
2021/09/17 00:28:00;;;;;;;7.43;2.05;;;14.90;99.90;;;;;;4889913;29;20053;-71
2021/09/17 00:30:28;;;;;;;3.78;1.40;;;14.90;99.90;;;;;;4890165;29;20097;-73
2021/09/17 00:32:58;;;;;;;3.00;1.42;;;14.70;99.90;;;;;;4889917;29;20028;-74
2021/09/17 00:35:24;;;;;;;4.90;2.25;;;14.80;99.90;;;;;;4890061;29;20062;-73
2021/09/17 00:37:51;;;;;;;6.05;1.67;;;14.80;99.90;;;;;;4889877;29;20111;-74
2021/09/17 00:40:17;;;;;;;9.60;1.95;;;14.70;99.90;;;;;;4889114;29;20048;-73
2021/09/17 00:42:42;;;;;;;3.40;1.98;;;14.70;99.90;;;;;;4892016;29;20029;-75
2021/09/17 00:45:11;;;;;;;4.70;2.00;;;14.70;99.90;;;;;;4893617;29;20189;-74
2021/09/17 00:47:38;;;;;;;5.20;2.08;;;14.80;99.90;;;;;;4891429;29;20033;-72
2021/09/17 00:50:06;;;;;;;9.07;2.15;;;14.70;99.90;;;;;;4893275;29;20036;-72
2021/09/17 00:52:32;;;;;;;3.20;2.17;;;14.70;99.90;;;;;;4893323;29;20033;-73
2021/09/17 00:54:58;;;;;;;5.47;2.35;;;14.70;99.90;;;;;;4891289;29;20137;-72
2021/09/17 00:57:24;;;;;;;5.57;2.25;;;14.70;99.90;;;;;;4892741;29;20029;-73
2021/09/17 00:59:49;;;;;;;12.60;2.53;;;14.70;99.90;;;;;;4893071;29;20043;-73
2021/09/17 01:02:15;;;;;;;3.55;2.13;;;14.70;99.90;;;;;;4892652;29;20449;-73
2021/09/17 01:04:42;;;;;;;4.50;2.30;;;14.70;99.90;;;;;;4893218;29;20035;-75
2021/09/17 01:07:08;;;;;;;18.13;2.42;;;14.70;99.90;;;;;;4891777;29;20084;-73
2021/09/17 01:09:34;;;;;;;4.65;2.63;;;14.70;99.90;;;;;;4892322;29;20025;-74
2021/09/17 01:12:03;;;;;;;3.97;2.08;;;14.70;99.90;;;;;;4892733;29;20115;-74
2021/09/17 01:14:34;;;;;;;5.30;2.22;;;14.60;99.90;;;;;;4892861;29;20062;-74
2021/09/17 01:17:00;;;;;;;7.20;1.67;;;14.60;99.90;;;;;;4892303;29;20033;-73
2021/09/17 01:19:26;;;;;;;3.58;1.98;;;14.60;99.90;;;;;;4892558;29;20089;-73
2021/09/17 01:21:59;;;;;;;2.47;1.50;;;14.60;99.90;;;;;;4892648;29;20029;-74
2021/09/17 01:24:25;;;;;;;2.78;1.95;;;14.60;99.90;;;;;;4892072;29;20036;-73
2021/09/17 01:26:51;;;;;;;4.68;1.98;;;14.60;99.90;;;;;;4892646;29;20029;-75
2021/09/17 01:29:16;;;;;;;2.95;1.48;;;14.60;99.90;;;;;;4892461;29;20474;-75
2021/09/17 01:31:42;;;;;;;4.43;1.73;;;14.60;99.90;;;;;;4892787;29;20037;-75
2021/09/17 01:34:08;;;;;;;6.95;2.13;;;14.60;99.90;;;;;;4892618;29;20069;-75
2021/09/17 01:36:34;;;;;;;5.78;1.92;;;14.50;99.90;;;;;;4892673;29;20033;-74
2021/09/17 01:39:00;;;;;;;4.25;1.45;;;14.60;99.90;;;;;;4891559;29;20076;-74
2021/09/17 01:41:26;;;;;;;4.43;2.08;;;14.50;99.90;;;;;;4892421;29;20033;-74
2021/09/17 01:43:51;;;;;;;4.57;2.10;;;14.60;99.90;;;;;;4892122;29;20041;-75
2021/09/17 01:46:18;;;;;;;4.03;2.05;;;14.50;99.90;;;;;;4892123;29;20033;-75
2021/09/17 01:48:43;;;;;;;5.28;1.75;;;14.50;99.90;;;;;;4892385;29;20735;-74
2021/09/17 01:51:09;;;;;;;4.90;1.85;;;14.50;99.90;;;;;;4891563;29;20056;-73
2021/09/17 01:53:34;;;;;;;4.85;1.70;;;14.50;99.90;;;;;;4891456;29;20029;-73
2021/09/17 01:56:00;;;;;;;7.25;2.03;;;14.50;99.90;;;;;;4892083;29;20065;-73
2021/09/17 01:58:26;;;;;;;2.30;1.50;;;14.50;99.90;;;;;;4891620;29;20052;-74
2021/09/17 02:00:52;;;;;;;1.95;1.23;;;14.40;99.90;;;;;;4890536;29;20056;-75
2021/09/17 02:03:17;;;;;;;5.82;1.42;;;14.40;99.90;;;;;;4891774;29;20033;-75
2021/09/17 02:05:43;;;;;;;3.42;1.70;;;14.40;99.90;;;;;;4891792;29;20040;-75
2021/09/17 02:08:09;;;;;;;3.85;1.73;;;14.40;99.90;;;;;;4892106;29;20028;-73
2021/09/17 02:10:35;;;;;;;5.53;1.85;;;14.40;99.90;;;;;;4891832;29;20036;-75
2021/09/17 02:13:02;;;;;;;6.32;1.50;;;14.40;99.90;;;;;;4891625;29;20036;-74
2021/09/17 02:15:27;;;;;;;7.68;1.85;;;14.40;99.90;;;;;;4891617;29;20053;-74
2021/09/17 02:17:53;;;;;;;2.72;1.70;;;14.30;99.90;;;;;;4891535;29;20041;-75
2021/09/17 02:20:19;;;;;;;3.45;1.58;;;14.40;99.90;;;;;;4891511;29;20029;-74
2021/09/17 02:22:44;;;;;;;5.45;1.40;;;14.40;99.90;;;;;;4891586;29;20033;-75
2021/09/17 02:25:10;;;;;;;11.68;2.28;;;14.40;99.90;;;;;;4891854;29;20061;-74
2021/09/17 02:27:40;;;;;;;4.38;1.70;;;14.40;99.90;;;;;;4891132;29;20052;-74
2021/09/17 02:30:08;;;;;;;4.93;2.00;;;14.40;99.90;;;;;;4891534;29;20092;-73
2021/09/17 02:32:34;;;;;;;6.82;1.75;;;14.40;99.90;;;;;;4891524;29;20025;-74
2021/09/17 02:35:00;;;;;;;7.47;1.83;;;14.40;99.90;;;;;;4890909;29;20029;-75
2021/09/17 02:37:25;;;;;;;3.28;1.35;;;14.30;99.90;;;;;;4889909;29;20064;-73
2021/09/17 02:39:51;;;;;;;3.53;1.23;;;14.30;99.90;;;;;;4890926;29;20481;-74
2021/09/17 02:42:16;;;;;;;4.82;1.52;;;14.30;99.90;;;;;;4890896;29;20040;-76
2021/09/17 02:44:42;;;;;;;4.95;1.63;;;14.30;99.90;;;;;;4890182;29;20025;-74
2021/09/17 02:47:08;;;;;;;3.78;1.10;;;14.30;99.90;;;;;;4891118;29;20475;-75
2021/09/17 02:49:33;;;;;;;8.00;2.05;;;14.30;99.90;;;;;;4889351;29;20033;-74
2021/09/17 02:52:02;;;;;;;2.88;1.67;;;14.30;99.90;;;;;;4891189;29;20062;-74
2021/09/17 02:54:28;;;;;;;3.42;1.50;;;14.30;99.90;;;;;;4890854;29;20088;-74
2021/09/17 02:56:54;;;;;;;4.43;1.70;;;14.30;99.90;;;;;;4890813;29;20029;-73
2021/09/17 02:59:19;;;;;;;10.18;2.17;;;14.30;99.90;;;;;;4890987;29;20131;-74
2021/09/17 03:01:45;;;;;;;3.67;1.20;;;14.30;99.90;;;;;;4890798;29;20478;-74
2021/09/17 03:04:10;;;;;;;6.35;1.50;;;14.30;99.90;;;;;;4890546;29;20029;-75
2021/09/17 03:06:36;;;;;;;9.02;1.85;;;14.20;99.90;;;;;;4890975;29;20037;-74
2021/09/17 03:09:02;;;;;;;5.20;1.83;;;14.10;99.90;;;;;;4890368;29;20118;-75
2021/09/17 03:11:27;;;;;;;7.03;1.77;;;14.20;99.90;;;;;;4890696;29;20025;-76
2021/09/17 03:13:53;;;;;;;3.42;1.67;;;14.20;99.90;;;;;;4889414;29;20036;-74
2021/09/17 03:16:19;;;;;;;5.45;1.63;;;14.10;99.90;;;;;;4890483;29;20487;-75
2021/09/17 03:18:44;;;;;;;6.97;2.30;;;14.20;99.90;;;;;;4890790;29;20067;-74
2021/09/17 03:21:10;;;;;;;3.17;1.25;;;14.10;99.90;;;;;;4890762;29;20070;-74
2021/09/17 03:23:35;;;;;;;3.60;1.58;;;14.10;99.90;;;;;;4890278;29;20029;-73
2021/09/17 03:26:01;;;;;;;2.95;1.42;;;14.10;99.90;;;;;;4890646;29;20036;-74
2021/09/17 03:28:27;;;;;;;10.82;1.77;;;14.00;99.90;;;;;;4890348;29;20103;-75
2021/09/17 03:30:52;;;;;;;4.30;1.92;;;14.00;99.90;;;;;;4889236;29;20044;-73
2021/09/17 03:33:19;;;;;;;8.98;1.77;;;14.00;99.90;;;;;;4890578;29;20041;-74
2021/09/17 03:35:45;;;;;;;7.35;2.13;;;14.00;99.90;;;;;;4889093;29;20040;-73
2021/09/17 03:38:11;;;;;;;3.55;1.88;;;13.90;99.90;;;;;;4890692;29;20041;-75
2021/09/17 03:40:39;;;;;;;8.10;2.35;;;13.90;99.90;;;;;;4890493;29;20064;-76
2021/09/17 03:43:04;;;;;;;16.35;2.10;;;13.90;99.90;;;;;;4890110;29;20029;-74
2021/09/17 03:45:32;;;;;;;5.55;1.77;;;13.90;99.90;;;;;;4890856;29;20053;-72
2021/09/17 03:48:02;;;;;;;7.95;2.20;;;13.80;99.90;;;;;;4890592;29;20029;-73
2021/09/17 03:50:28;;;;;;;5.57;1.52;;;13.90;99.90;;;;;;4890334;29;20053;-73
2021/09/17 03:52:54;;;;;;;3.95;1.80;;;13.80;99.90;;;;;;4890346;29;20029;-75
2021/09/17 03:55:19;;;;;;;5.35;1.92;;;13.80;99.90;;;;;;4890137;29;20047;-74
2021/09/17 03:57:45;;;;;;;6.03;1.70;;;13.80;99.90;;;;;;4890026;29;20025;-75
2021/09/17 04:00:12;;;;;;;4.07;1.85;;;13.70;99.90;;;;;;4889300;29;20033;-75
2021/09/17 04:02:37;;;;;;;5.38;2.05;;;13.70;99.90;;;;;;4890278;29;20037;-74
2021/09/17 04:05:03;;;;;;;2.20;1.05;;;13.70;99.90;;;;;;4890020;29;20066;-73
2021/09/17 04:07:29;;;;;;;4.60;1.65;;;13.70;99.90;;;;;;4890481;29;20036;-74
2021/09/17 04:09:54;;;;;;;12.30;2.50;;;13.60;99.90;;;;;;4889969;29;20129;-76
2021/09/17 04:12:20;;;;;;;1.20;1.00;;;13.70;99.90;;;;;;4889944;29;20045;-75
2021/09/17 04:14:46;;;;;;;11.23;2.13;;;13.60;99.90;;;;;;4890748;29;20093;-74
2021/09/17 04:17:11;;;;;;;5.82;1.98;;;13.60;99.90;;;;;;4893302;29;20025;-75
2021/09/17 04:19:37;;;;;;;4.88;1.45;;;13.60;99.90;;;;;;4893765;29;20045;-74
2021/09/17 04:22:04;;;;;;;7.20;2.67;;;13.50;99.90;;;;;;4893740;29;20596;-74
2021/09/17 04:24:30;;;;;;;5.07;2.28;;;13.60;99.90;;;;;;4893258;29;20037;-75
2021/09/17 04:26:55;;;;;;;3.05;1.60;;;13.50;99.90;;;;;;4893823;29;20029;-74
2021/09/17 04:29:21;;;;;;;5.35;1.98;;;13.50;99.90;;;;;;4893505;29;20037;-74
2021/09/17 04:31:46;;;;;;;1.65;1.17;;;13.50;99.90;;;;;;4893228;29;20059;-74
2021/09/17 04:34:12;;;;;;;6.20;1.70;;;13.50;99.90;;;;;;4892362;29;20034;-75
2021/09/17 04:36:38;;;;;;;10.07;1.73;;;13.60;99.90;;;;;;4893566;29;20033;-74
2021/09/17 04:39:03;;;;;;;5.78;1.92;;;13.40;99.90;;;;;;4892110;29;20069;-75
2021/09/17 04:41:29;;;;;;;3.58;2.05;;;13.60;99.90;;;;;;4893377;29;20032;-73
2021/09/17 04:43:54;;;;;;;6.65;1.65;;;13.40;99.90;;;;;;4893304;29;20029;-75
2021/09/17 04:46:20;;;;;;;11.02;1.38;;;13.40;99.90;;;;;;4892811;29;20033;-75
2021/09/17 04:48:45;;;;;;;3.08;1.73;;;13.40;99.90;;;;;;4893281;29;20029;-74
2021/09/17 04:51:11;;;;;;;4.57;1.98;;;13.40;99.90;;;;;;4893403;29;20037;-75
2021/09/17 04:53:36;;;;;;;2.22;1.42;;;13.40;99.90;;;;;;4893010;29;20044;-74
2021/09/17 04:56:02;;;;;;;3.15;1.63;;;13.40;99.90;;;;;;4892950;29;20044;-72
2021/09/17 04:58:28;;;;;;;3.25;1.90;;;13.40;99.90;;;;;;4891606;29;20049;-72
2021/09/17 05:00:53;;;;;;;2.92;1.70;;;13.30;99.90;;;;;;4892563;29;20025;-73
2021/09/17 05:03:19;;;;;;;4.22;1.77;;;13.30;99.90;;;;;;4891806;29;20025;-73
2021/09/17 05:05:44;;;;;;;6.22;1.90;;;13.30;99.90;;;;;;4893207;29;20025;-74
2021/09/17 05:08:11;;;;;;;5.15;1.85;;;13.30;99.90;;;;;;4891651;29;20394;-73
2021/09/17 05:10:36;;;;;;;3.92;1.70;;;13.30;99.90;;;;;;4892693;29;20044;-75
2021/09/17 05:13:02;;;;;;;7.72;2.03;;;13.30;99.90;;;;;;4892618;29;20036;-73
2021/09/17 05:15:28;;;;;;;5.32;2.05;;;13.30;99.90;;;;;;4892608;29;20057;-73
2021/09/17 05:17:53;;;;;;;4.30;2.10;;;13.30;99.90;;;;;;4892062;29;20041;-71
2021/09/17 05:20:19;;;;;;;4.68;1.77;;;13.30;99.90;;;;;;4892560;29;20037;-73
2021/09/17 05:22:45;;;;;;;4.15;2.05;;;13.30;99.90;;;;;;4892742;29;20033;-74
2021/09/17 05:25:12;;;;;;;3.90;1.85;;;13.30;99.90;;;;;;4891528;29;20029;-73
2021/09/17 05:27:38;;;;;;;5.68;1.70;;;13.40;99.90;;;;;;4878418;29;20025;-75
2021/09/17 05:30:05;;;;;;;3.03;1.60;;;13.40;99.90;;;;;;4878511;29;20058;-72
2021/09/17 05:32:31;;;;;;;3.22;2.05;;;13.40;99.90;;;;;;4879600;29;20068;-72
2021/09/17 05:34:56;;;;;;;6.45;2.25;;;13.40;99.90;;;;;;4873332;29;20033;-73
2021/09/17 05:37:22;;;;;;;10.18;2.47;;;13.40;99.90;;;;;;4888938;29;20029;-74
2021/09/17 05:39:49;;;;;;;8.25;2.30;;;13.40;99.90;;;;;;4891598;29;20056;-74
2021/09/17 05:42:15;;;;;;;3.42;2.08;;;13.40;99.90;;;;;;4873051;29;20376;-74
2021/09/17 05:44:41;;;;;;;4.00;1.90;;;13.50;99.90;;;;;;4873204;29;20070;-75
2021/09/17 05:47:07;;;;;;;2.63;1.75;;;13.50;99.90;;;;;;4873099;29;20070;-73
2021/09/17 05:49:32;;;;;;;6.22;1.85;;;13.60;99.90;;;;;;4876190;29;20041;-74
2021/09/17 05:51:58;;;;;;;8.95;2.53;;;13.60;99.90;;;;;;4881738;29;20037;-73
2021/09/17 05:54:23;;;;;;;5.38;2.60;;;13.60;99.90;;;;;;4885211;29;20028;-73
2021/09/17 05:56:49;;;;;;;5.13;2.58;;;13.70;99.90;;;;;;4885859;29;20037;-74
2021/09/17 05:59:19;;;;;;;2.05;1.27;;;13.70;99.90;;;;;;4876968;29;20394;-74
2021/09/17 06:01:48;;;;;;;15.48;2.13;;;13.70;99.90;;;;;;4882361;29;20058;-74
2021/09/17 06:04:14;;;;;;;5.30;1.95;;;13.80;99.90;;;;;;4889665;29;20033;-74
2021/09/17 06:06:39;;;;;;;3.40;1.70;;;13.80;99.90;;;;;;4885386;29;20129;-75
2021/09/17 06:09:05;;;;;;;5.13;1.60;;;13.80;99.90;;;;;;4877364;29;20026;-73
2021/09/17 06:11:30;;;;;;;3.20;1.75;;;13.70;99.90;;;;;;4885861;29;20053;-74
2021/09/17 06:13:56;;;;;;;2.88;1.88;;;13.70;99.90;;;;;;4883455;29;20037;-73
2021/09/17 06:16:22;;;;;;;3.95;1.60;;;13.80;99.90;;;;;;4883330;29;20034;-73
2021/09/17 06:18:47;;;;;;;7.65;2.55;;;13.80;99.90;;;;;;4882604;29;20052;-75
2021/09/17 06:21:13;;;;;;;1.77;1.48;;;13.80;99.90;;;;;;4889944;29;20030;-73
2021/09/17 06:23:41;;;;;;;3.30;1.63;;;13.90;99.90;;;;;;4877098;29;20037;-74
2021/09/17 06:26:07;;;;;;;2.15;1.30;;;13.90;99.90;;;;;;4882634;29;20033;-73
2021/09/17 06:28:33;;;;;;;7.28;1.73;;;13.90;99.90;;;;;;4880468;29;20029;-74
2021/09/17 06:30:59;;;;;;;5.13;1.65;;;14.00;99.90;;;;;;4884712;29;20044;-73
2021/09/17 06:33:24;;;;;;;9.70;2.58;;;14.10;99.90;;;;;;4889950;29;20060;-74
2021/09/17 06:35:50;;;;;;;2.47;1.88;;;14.10;99.90;;;;;;4879941;29;20030;-74
2021/09/17 06:38:16;;;;;;;4.35;2.03;;;14.20;99.90;;;;;;4871142;29;20061;-75
2021/09/17 06:40:42;;;;;;;2.83;1.42;;;14.30;99.90;;;;;;4872863;29;20051;-73
2021/09/17 06:43:07;;;;;;;3.35;1.77;;;14.20;99.90;;;;;;4871066;29;20048;-74
2021/09/17 06:45:33;;;;;;;2.67;1.67;;;14.30;99.90;;;;;;4872435;29;20084;-73
2021/09/17 06:47:59;;;;;;;10.50;1.98;;;14.50;99.90;;;;;;4872056;29;20033;-74
2021/09/17 06:50:29;;;;;;;3.58;1.70;;;14.40;99.90;;;;;;4872081;29;20033;-74
2021/09/17 06:52:57;;;;;;;2.60;1.40;;;14.40;99.90;;;;;;4871117;29;20045;-74
2021/09/17 06:55:26;;;;;;;5.35;1.83;;;14.40;99.90;;;;;;4872307;29;20068;-74
2021/09/17 06:57:57;;;;;;;3.85;2.22;;;14.50;99.90;;;;;;4871947;29;20030;-73
2021/09/17 07:00:25;;;;;;;7.43;1.50;;;14.50;99.90;;;;;;4872339;29;20026;-74
2021/09/17 07:02:51;;;;;;;4.43;1.75;;;14.50;99.90;;;;;;4872343;29;20022;-75
2021/09/17 07:05:17;;;;;;;8.43;1.45;;;14.50;99.90;;;;;;4872006;29;20086;-74
2021/09/17 07:07:43;;;;;;;6.07;1.75;;;14.50;99.90;;;;;;4872380;29;20033;-74
2021/09/17 07:10:10;;;;;;;3.17;1.27;;;14.50;99.90;;;;;;4872126;29;20041;-75
2021/09/17 07:12:37;;;;;;;4.57;1.25;;;14.60;99.90;;;;;;4871851;29;20033;-73
2021/09/17 07:15:04;;;;;;;2.92;1.27;;;14.60;99.90;;;;;;4872320;29;20032;-74
2021/09/17 07:17:33;;;;;;;2.30;1.35;;;14.50;99.90;;;;;;4872259;29;20030;-76
2021/09/17 07:19:59;;;;;;;2.33;1.38;;;14.60;99.90;;;;;;4882442;29;20052;-74
2021/09/17 07:22:25;;;;;;;6.13;1.70;;;14.60;99.90;;;;;;4890514;29;20037;-74
2021/09/17 07:24:50;;;;;;;0.55;0.45;;;14.60;99.90;;;;;;4890547;29;20029;-76
2021/09/17 07:27:17;;;;;;;11.65;1.38;;;14.60;99.90;;;;;;4889530;29;20037;-75
2021/09/17 07:29:43;;;;;;;7.57;1.20;;;14.60;99.90;;;;;;4889619;29;20156;-76
2021/09/17 07:32:09;;;;;;;1.08;0.85;;;14.60;99.90;;;;;;4888142;29;20037;-75
2021/09/17 07:34:35;;;;;;;2.90;1.38;;;14.60;99.90;;;;;;4882073;29;20052;-76
2021/09/17 07:37:00;;;;;;;1.50;1.13;;;14.60;99.90;;;;;;4871884;29;20053;-76
2021/09/17 07:39:26;;;;;;;14.75;1.40;;;14.70;99.90;;;;;;4871158;29;20057;-76
2021/09/17 07:41:52;;;;;;;13.75;1.70;;;14.80;99.90;;;;;;4871767;29;20495;-76
2021/09/17 07:44:18;;;;;;;4.97;1.33;;;14.80;99.90;;;;;;4872289;29;20057;-77
2021/09/17 07:46:44;;;;;;;0.70;0.50;;;14.80;99.90;;;;;;4878200;29;20096;-75
2021/09/17 07:49:09;;;;;;;5.07;1.42;;;15.00;99.90;;;;;;4878033;29;20040;-74
2021/09/17 07:51:35;;;;;;;2.78;1.13;;;15.00;99.90;;;;;;4884959;29;20037;-74
2021/09/17 07:54:01;;;;;;;8.25;1.88;;;15.10;99.90;;;;;;4895317;29;20093;-76
2021/09/17 07:56:27;;;;;;;6.18;2.17;;;15.20;99.90;;;;;;4892100;29;20029;-77
2021/09/17 07:58:52;;;;;;;5.28;1.73;;;15.20;99.90;;;;;;4892076;29;20077;-75
2021/09/17 08:01:23;;;;;;;7.53;1.42;;;15.40;99.90;;;;;;4892644;29;20044;-76
2021/09/17 08:03:49;;;;;;;2.80;1.45;;;15.40;99.90;;;;;;4892639;29;20085;-76
2021/09/17 08:06:16;;;;;;;1.42;1.17;;;15.40;99.90;;;;;;4891935;29;20394;-76
2021/09/17 08:08:43;;;;;;;4.03;1.35;;;15.40;99.90;;;;;;4892673;29;20029;-75
2021/09/17 08:11:12;;;;;;;4.18;1.70;;;15.40;99.90;;;;;;4893471;29;20037;-77
2021/09/17 08:13:38;;;;;;;2.55;1.50;;;15.30;99.90;;;;;;4886093;29;20074;-75
2021/09/17 08:16:04;;;;;;;5.63;1.75;;;15.40;99.90;;;;;;4882119;29;20033;-76
2021/09/17 08:18:29;;;;;;;1.65;0.95;;;15.30;99.90;;;;;;4882326;29;20073;-76
2021/09/17 08:20:58;;;;;;;1.88;1.33;;;15.30;99.90;;;;;;4891116;29;20097;-76
2021/09/17 08:23:25;;;;;;;5.80;1.60;;;15.40;99.90;;;;;;4892864;29;20036;-77
2021/09/17 08:25:55;;;;;;;2.63;1.48;;;15.50;99.90;;;;;;4886582;29;20026;-76
2021/09/17 08:28:22;;;;;;;2.95;1.27;;;15.60;99.90;;;;;;4889682;29;20029;-76
2021/09/17 08:30:50;;;;;;;2.47;1.05;;;15.60;99.90;;;;;;4891281;29;20035;-77
2021/09/17 08:33:18;;;;;;;1.75;1.23;;;15.70;99.90;;;;;;4893198;29;20033;-76
2021/09/17 08:35:46;;;;;;;8.30;1.20;;;15.70;99.90;;;;;;4892581;29;20063;-76
2021/09/17 08:38:13;;;;;;;6.07;1.45;;;15.80;99.90;;;;;;4893290;29;20073;-76
2021/09/17 08:40:40;;;;;;;6.75;1.20;;;15.80;99.90;;;;;;4892034;29;20076;-76
2021/09/17 08:43:06;;;;;;;4.15;0.70;;;15.80;99.90;;;;;;4888759;29;20030;-77
2021/09/17 08:45:32;;;;;;;1.65;0.82;;;15.80;99.90;;;;;;4890784;29;20037;-76
2021/09/17 08:47:58;;;;;;;2.47;0.77;;;15.70;99.90;;;;;;4878781;29;20041;-76
2021/09/17 08:50:24;;;;;;;8.77;1.52;;;15.60;99.90;;;;;;4893047;29;20033;-75
2021/09/17 08:52:50;;;;;;;3.03;0.88;;;15.70;99.90;;;;;;4891687;29;20033;-75
2021/09/17 08:55:17;;;;;;;1.80;1.30;;;15.70;99.90;;;;;;4886052;29;20109;-76
2021/09/17 08:57:45;;;;;;;2.33;1.10;;;15.80;99.90;;;;;;4873268;29;20475;-76
2021/09/17 09:00:25;;;;;;;1.42;0.77;;;15.90;99.90;;;;;;4874372;29;20030;-77
2021/09/17 09:02:56;;;;;;;2.67;1.17;;;15.90;99.90;;;;;;4872978;29;20029;-76
2021/09/17 09:05:33;;;;;;;2.45;1.17;;;16.00;99.90;;;;;;4873610;29;21215;-77
2021/09/17 09:08:01;;;;;;;0.55;0.55;;;16.10;99.90;;;;;;4883740;29;20033;-77
2021/09/17 09:10:27;;;;;;;2.47;0.88;;;16.20;99.90;;;;;;4888344;29;20082;-77
2021/09/17 09:12:54;;;;;;;1.73;0.80;;;16.30;99.90;;;;;;4888219;29;20025;-78
2021/09/17 09:15:26;;;;;;;0.90;0.60;;;16.40;99.90;;;;;;4881693;29;20044;-78
2021/09/17 09:17:56;;;;;;;3.15;1.00;;;16.40;99.90;;;;;;4892808;29;20033;-78
2021/09/17 09:20:35;;;;;;;1.42;1.00;;;16.60;99.90;;;;;;4887193;29;20414;-78
2021/09/17 09:23:24;;;;;;;1.52;1.05;;;16.70;99.90;;;;;;4888344;29;20033;-77
2021/09/17 09:26:02;;;;;;;4.07;0.88;;;16.80;99.90;;;;;;4886953;29;20045;-78
2021/09/17 09:28:44;;;;;;;1.08;0.70;;;16.90;99.90;;;;;;4891572;29;20057;-76
2021/09/17 09:31:22;;;;;;;1.77;0.90;;;16.90;99.90;;;;;;4891385;29;20173;-75
2021/09/17 09:33:50;;;;;;;2.85;0.95;;;16.90;99.90;;;;;;4889022;29;20025;-78
2021/09/17 09:36:17;;;;;;;10.70;0.80;;;16.80;99.90;;;;;;4884243;29;20398;-79
2021/09/17 09:38:52;;;;;;;1.40;0.75;;;16.70;99.90;;;;;;4902627;29;20495;-78
2021/09/17 09:41:19;;;;;;;1.05;0.80;;;16.60;99.90;;;;;;4873514;29;20054;-77
2021/09/17 09:43:50;;;;;;;4.38;0.88;;;16.50;99.90;;;;;;4873259;29;20021;-80
2021/09/17 09:46:22;;;;;;;1.10;0.63;;;16.40;99.90;;;;;;4873749;29;20037;-79
2021/09/17 09:49:05;;;;;;;0.77;0.50;;;16.30;99.90;;;;;;4894398;29;20036;-78
2021/09/17 09:51:35;;;;;;;7.13;0.90;;;16.10;99.90;;;;;;4889943;29;20077;-79
2021/09/17 09:54:03;;;;;;;1.73;0.40;;;15.90;99.90;;;;;;4890981;29;20033;-78
2021/09/17 09:56:30;;;;;;;0.95;0.60;;;15.90;99.90;;;;;;4891624;29;20025;-79
2021/09/17 09:58:56;;;;;;;0.77;0.60;;;15.90;99.90;;;;;;4889429;29;20045;-79
2021/09/17 10:01:23;;;;;;;0.45;0.45;;;15.90;99.90;;;;;;4892160;29;20057;-79
2021/09/17 10:03:56;;;;;;;1.17;0.82;;;16.00;99.90;;;;;;4891888;29;20033;-79
2021/09/17 10:06:24;;;;;;;0.85;0.63;;;16.00;99.90;;;;;;4890054;29;20037;-78
2021/09/17 10:08:54;;;;;;;1.00;0.52;;;16.00;99.90;;;;;;4891269;29;20053;-79
2021/09/17 10:11:24;;;;;;;0.45;0.25;;;16.10;99.90;;;;;;4886906;29;20036;-79
2021/09/17 10:13:57;;;;;;;0.28;0.28;;;16.20;99.90;;;;;;4874880;29;20033;-80
2021/09/17 10:16:25;;;;;;;3.20;0.50;;;16.20;99.90;;;;;;4882616;29;20030;-78
2021/09/17 10:18:53;;;;;;;1.45;0.47;;;16.30;99.90;;;;;;4884214;29;20108;-80
2021/09/17 10:22:00;;;;;;;1.67;0.30;;;16.40;99.90;;;;;;4899217;29;20047;-80
2021/09/17 10:24:29;;;;;;;0.38;0.22;;;16.50;99.90;;;;;;4876960;29;20021;-77
2021/09/17 10:27:31;;;;;;;2.60;0.20;;;16.60;99.90;;;;;;4875592;29;20064;-81
2021/09/17 10:30:00;;;;;;;0.55;0.30;;;16.70;99.90;;;;;;4807935;29;20080;-77
2021/09/17 10:32:44;;;;;;;0.32;0.20;;;16.80;99.90;;;;;;4865974;29;20038;-79
2021/09/17 10:35:39;;;;;;;0.13;0.10;;;16.80;99.90;;;;;;4874852;29;20034;-80
2021/09/17 10:38:17;;;;;;;4.18;0.30;;;16.80;99.90;;;;;;4868287;29;20088;-80
2021/09/17 10:40:54;;;;;;;0.25;0.25;;;16.80;99.90;;;;;;4884447;29;20053;-80
2021/09/17 10:43:32;;;;;;;0.63;0.20;;;16.80;99.90;;;;;;4884017;29;20030;-81
2021/09/17 10:46:05;;;;;;;1.20;0.38;;;16.90;99.90;;;;;;4891784;29;20049;-81
2021/09/17 10:48:53;;;;;;;2.00;0.20;;;17.00;99.90;;;;;;4883629;29;20029;-78
2021/09/17 10:51:32;;;;;;;7.30;0.38;;;17.10;99.90;;;;;;4882263;29;20050;-79
2021/09/17 10:54:04;;;;;;;0.30;0.22;;;17.10;99.90;;;;;;4871229;29;20066;-78
2021/09/17 10:56:51;;;;;;;3.92;0.40;;;17.10;99.90;;;;;;4874463;29;20033;-82
2021/09/17 10:59:25;;;;;;;1.70;0.40;;;17.20;99.90;;;;;;4888670;29;20041;-78
2021/09/17 11:01:55;;;;;;;;;;;17.40;99.90;;;;;;4894090;29;20459;-77
2021/09/17 11:04:25;;;;;;;2.00;0.40;;;17.60;99.90;;;;;;4872074;29;19915;-80
2021/09/17 11:06:53;;;;;;;0.10;0.00;;;17.80;99.90;;;;;;4882091;29;20033;-79
2021/09/17 11:09:40;;;;;;;1.02;0.35;;;17.90;99.90;;;;;;4871761;29;20037;-80
2021/09/17 11:12:23;;;;;;;10.02;0.22;;;18.00;99.90;;;;;;4870732;29;20109;-79
2021/09/17 11:15:20;;;;;;;0.63;0.13;;;18.10;99.90;;;;;;4870829;29;20037;-78
2021/09/17 11:17:49;;;;;;;0.10;0.03;;;18.10;99.90;;;;;;4885723;29;20482;-78
2021/09/17 11:20:24;;;;;;;0.00;0.00;;;18.10;99.90;;;;;;4884205;29;20405;-79
2021/09/17 11:22:57;;;;;;;0.90;0.20;;;18.20;99.90;;;;;;4890887;29;20048;-79
2021/09/17 11:25:30;;;;;;;0.70;0.15;;;18.20;99.90;;;;;;4888663;29;20032;-75
2021/09/17 11:27:58;;;;;;;0.17;0.03;;;18.30;99.90;;;;;;4890005;29;20029;-80
2021/09/17 11:30:26;;;;;;;0.00;0.00;;;18.40;99.90;;;;;;4872390;29;20033;-79
2021/09/17 11:32:55;;;;;;;0.25;0.13;;;18.40;99.90;;;;;;4872463;29;20178;-74
2021/09/17 11:35:20;;;;;;;1.02;0.22;;;18.70;99.90;;;;;;4870654;29;20060;-79
2021/09/17 11:37:55;;;;;;;0.95;0.20;;;18.90;99.90;;;;;;4872237;29;20036;-78
2021/09/17 11:40:22;;;;;;;0.17;0.10;;;18.80;99.90;;;;;;4872470;29;20114;-80
2021/09/17 11:42:48;;;;;;;1.95;0.57;;;18.70;99.90;;;;;;4872796;29;20029;-79
2021/09/17 11:45:19;;;;;;;2.35;0.32;;;18.50;99.90;;;;;;4872581;29;20033;-78
2021/09/17 11:47:49;;;;;;;1.95;0.55;;;18.50;99.90;;;;;;4873173;29;20031;-80
2021/09/17 11:50:17;;;;;;;0.20;0.10;;;18.60;99.90;;;;;;4871684;29;20040;-79
2021/09/17 11:52:49;;;;;;;2.92;0.20;;;18.90;99.90;;;;;;4873935;29;20037;-80
2021/09/17 11:55:21;;;;;;;0.08;0.05;;;19.20;99.90;;;;;;4872364;29;20036;-82
2021/09/17 11:57:49;;;;;;;0.10;0.10;;;19.40;99.90;;;;;;4871774;29;20037;-79
2021/09/17 12:00:19;;;;;;;1.83;0.43;;;19.20;99.90;;;;;;4872266;29;20018;-80
2021/09/17 12:02:47;;;;;;;0.10;0.10;;;19.00;99.90;;;;;;4872400;29;20054;-78
2021/09/17 12:05:25;;;;;;;0.35;0.10;;;19.00;99.90;;;;;;4870800;29;20419;-77
2021/09/17 12:07:51;;;;;;;0.50;0.30;;;19.00;99.90;;;;;;4872667;29;20032;-79
2021/09/17 12:10:31;;;;;;;1.20;0.30;;;18.80;99.90;;;;;;4871031;29;20097;-77
2021/09/17 12:13:09;;;;;;;2.25;0.40;;;18.70;99.90;;;;;;4871456;29;20068;-79
2021/09/17 12:15:40;;;;;;;1.13;0.28;;;18.70;99.90;;;;;;4869822;29;20115;-78
2021/09/17 12:18:08;;;;;;;0.80;0.20;;;19.00;99.90;;;;;;4870635;29;20065;-78
2021/09/17 12:20:47;;;;;;;0.20;0.10;;;19.20;99.90;;;;;;4871612;29;20068;-78
2021/09/17 12:23:19;;;;;;;8.82;0.25;;;19.40;99.90;;;;;;4872092;29;20058;-78
2021/09/17 12:25:46;;;;;;;0.43;0.20;;;19.30;99.90;;;;;;4872284;29;20189;-77
2021/09/17 12:28:20;;;;;;;0.30;0.10;;;19.20;99.90;;;;;;4871804;29;20037;-80
2021/09/17 12:30:48;;;;;;;0.47;0.20;;;19.40;99.90;;;;;;4872427;29;20032;-79
2021/09/17 12:33:20;;;;;;;2.55;0.35;;;20.00;99.90;;;;;;4904744;29;20036;-76
2021/09/17 12:35:48;;;;;;;0.25;0.15;;;20.50;99.90;;;;;;4908898;29;20033;-77
2021/09/17 12:38:16;;;;;;;1.02;0.32;;;21.00;99.90;;;;;;4904498;29;20052;-77
2021/09/17 12:40:47;;;;;;;1.85;0.20;;;21.40;99.90;;;;;;4901505;29;20078;-76
2021/09/17 12:43:16;;;;;;;0.88;0.22;;;21.60;99.90;;;;;;4911369;29;20056;-79
2021/09/17 12:46:00;;;;;;;1.42;0.22;;;21.70;99.90;;;;;;4911348;29;20379;-78
2021/09/17 12:48:32;;;;;;;3.08;0.65;;;21.90;99.90;;;;;;4912379;29;20039;-80
2021/09/17 12:50:58;;;;;;;0.20;0.00;;;22.10;99.90;;;;;;4905745;29;20052;-80